createdAt,value
2018-04-30T00:01:25.448Z,81.79
2018-04-30T00:03:51.172Z,81.15
2018-04-30T00:06:16.900Z,81.16
2018-04-30T00:08:42.633Z,81.32
2018-04-30T00:11:08.357Z,81.50
2018-04-30T00:13:34.079Z,81.49
2018-04-30T00:15:59.816Z,81.64
2018-04-30T00:18:25.536Z,81.53
2018-04-30T00:20:51.277Z,81.19
2018-04-30T00:23:17.009Z,81.18
2018-04-30T00:25:42.753Z,81.48
2018-04-30T00:28:08.467Z,81.58
2018-04-30T00:30:34.210Z,81.44
2018-04-30T00:32:59.940Z,81.29
2018-04-30T00:35:25.701Z,81.08
2018-04-30T00:37:51.428Z,81.00
2018-04-30T00:40:17.177Z,81.70
2018-04-30T00:42:42.908Z,81.77
2018-04-30T00:45:08.644Z,81.78
2018-04-30T00:47:34.376Z,82.01
2018-04-30T00:50:00.100Z,82.35
2018-04-30T00:52:25.834Z,82.30
2018-04-30T00:54:58.674Z,82.65
2018-04-30T00:57:24.607Z,83.13
2018-04-30T00:59:50.272Z,83.14
2018-04-30T01:02:16.013Z,83.62
2018-04-30T01:04:41.743Z,83.72
2018-04-30T01:07:07.477Z,84.05
2018-04-30T01:09:33.244Z,84.44
2018-04-30T01:11:58.964Z,84.60
2018-04-30T01:14:24.721Z,84.23
2018-04-30T01:16:50.434Z,84.60
2018-04-30T01:19:16.152Z,84.69
2018-04-30T01:21:41.893Z,85.12
2018-04-30T01:24:07.618Z,85.53
2018-04-30T01:26:33.353Z,86.07
2018-04-30T01:28:59.068Z,86.32
2018-04-30T01:31:24.813Z,86.65
2018-04-30T01:33:50.541Z,86.51
2018-04-30T01:36:16.269Z,86.79
2018-04-30T01:38:41.983Z,86.81
2018-04-30T01:41:07.733Z,86.92
2018-04-30T01:43:33.451Z,86.89
2018-04-30T01:45:59.187Z,86.70
2018-04-30T01:48:24.916Z,86.54
2018-04-30T01:50:50.657Z,86.55
2018-04-30T01:53:16.377Z,86.54
2018-04-30T01:55:42.148Z,86.97
2018-04-30T01:58:07.868Z,86.88
2018-04-30T02:00:33.601Z,87.02
2018-04-30T02:02:59.349Z,86.90
2018-04-30T02:05:25.073Z,86.73
2018-04-30T02:07:50.807Z,86.68
2018-04-30T02:10:16.520Z,86.71
2018-04-30T02:12:42.260Z,86.98
2018-04-30T02:15:07.996Z,87.23
2018-04-30T02:17:33.736Z,86.67
2018-04-30T02:19:59.472Z,87.00
2018-04-30T02:22:25.227Z,87.16
2018-04-30T02:24:50.953Z,87.38
2018-04-30T02:27:16.675Z,87.43
2018-04-30T02:29:42.408Z,87.61
2018-04-30T02:32:08.133Z,87.68
2018-04-30T02:34:33.847Z,87.68
2018-04-30T02:36:59.577Z,87.69
2018-04-30T02:39:25.317Z,87.36
2018-04-30T02:41:51.045Z,87.51
2018-04-30T02:44:16.768Z,87.91
2018-04-30T02:46:42.503Z,87.82
2018-04-30T02:49:08.228Z,87.71
2018-04-30T02:51:33.972Z,87.72
2018-04-30T02:53:59.696Z,87.82
2018-04-30T02:56:25.529Z,87.94
2018-04-30T02:58:51.268Z,87.62
2018-04-30T03:01:16.993Z,87.83
2018-04-30T03:03:42.713Z,88.00
2018-04-30T03:06:08.440Z,87.74
2018-04-30T03:08:34.170Z,88.00
2018-04-30T03:10:59.904Z,88.03
2018-04-30T03:13:25.636Z,87.90
2018-04-30T03:15:51.356Z,87.86
2018-04-30T03:18:17.087Z,87.85
2018-04-30T03:20:42.808Z,87.58
2018-04-30T03:23:08.537Z,87.67
2018-04-30T03:25:34.269Z,87.80
2018-04-30T03:27:59.992Z,87.65
2018-04-30T03:30:25.727Z,87.69
2018-04-30T03:32:51.448Z,87.33
2018-04-30T03:35:17.172Z,87.21
2018-04-30T03:37:42.897Z,86.85
2018-04-30T03:40:08.619Z,86.72
2018-04-30T03:42:34.356Z,86.76
2018-04-30T03:45:00.071Z,86.71
2018-04-30T03:47:25.804Z,86.70
2018-04-30T03:49:51.527Z,86.60
2018-04-30T03:52:17.276Z,86.55
2018-04-30T03:54:43.004Z,86.16
2018-04-30T03:57:08.731Z,86.15
2018-04-30T03:59:34.447Z,86.10
2018-04-30T04:02:12.586Z,86.12
2018-04-30T04:04:50.524Z,86.00
2018-04-30T04:07:16.269Z,86.06
2018-04-30T04:09:41.991Z,86.11
2018-04-30T04:12:07.728Z,86.02
2018-04-30T04:14:33.461Z,85.96
2018-04-30T04:16:59.187Z,85.72
2018-04-30T04:19:24.920Z,85.70
2018-04-30T04:21:50.652Z,85.41
2018-04-30T04:24:16.397Z,85.34
2018-04-30T04:26:42.112Z,85.33
2018-04-30T04:29:07.850Z,85.12
2018-04-30T04:31:33.580Z,84.93
2018-04-30T04:33:59.312Z,84.76
2018-04-30T04:36:25.037Z,87.42
2018-04-30T04:38:50.768Z,89.10
2018-04-30T04:41:16.506Z,90.25
2018-04-30T04:43:42.229Z,89.43
2018-04-30T04:46:07.955Z,89.31
2018-04-30T04:48:33.683Z,88.42
2018-04-30T04:50:59.404Z,88.68
2018-04-30T04:53:25.141Z,88.88
2018-04-30T04:55:50.876Z,87.92
2018-04-30T04:58:16.613Z,86.82
2018-04-30T05:00:42.340Z,87.71
2018-04-30T05:03:08.057Z,86.92
2018-04-30T05:05:33.780Z,87.08
2018-04-30T05:07:59.502Z,85.66
2018-04-30T05:10:25.219Z,86.00
2018-04-30T05:12:50.943Z,85.79
2018-04-30T05:15:16.664Z,85.95
2018-04-30T05:17:42.405Z,85.61
2018-04-30T05:20:08.136Z,85.16
2018-04-30T05:22:33.852Z,84.89
2018-04-30T05:24:59.584Z,84.67
2018-04-30T05:27:25.297Z,84.16
2018-04-30T05:29:51.020Z,83.56
2018-04-30T05:32:16.736Z,83.83
2018-04-30T05:34:42.467Z,83.58
2018-04-30T05:37:08.196Z,83.40
2018-04-30T05:39:33.928Z,82.53
2018-04-30T05:41:59.654Z,82.81
2018-04-30T05:44:25.438Z,82.35
2018-04-30T05:46:51.126Z,81.67
2018-04-30T05:49:16.865Z,81.04
2018-04-30T05:51:42.588Z,81.01
2018-04-30T05:54:08.348Z,80.84
2018-04-30T05:56:34.075Z,81.20
2018-04-30T05:58:59.816Z,79.69
2018-04-30T06:01:25.637Z,80.06
2018-04-30T06:03:51.369Z,79.77
2018-04-30T06:06:17.096Z,79.85
2018-04-30T06:08:42.890Z,80.03
2018-04-30T06:11:08.568Z,78.30
2018-04-30T06:13:34.313Z,78.14
2018-04-30T06:16:00.043Z,78.58
2018-04-30T06:18:26.567Z,78.04
2018-04-30T06:20:52.284Z,78.81
2018-04-30T06:23:18.013Z,78.60
2018-04-30T06:25:43.767Z,78.19
2018-04-30T06:28:09.500Z,78.42
2018-04-30T06:30:35.216Z,78.43
2018-04-30T06:33:00.941Z,78.40
2018-04-30T06:35:26.676Z,77.48
2018-04-30T06:37:52.409Z,77.96
2018-04-30T06:40:18.144Z,77.67
2018-04-30T06:42:43.869Z,77.96
2018-04-30T06:45:09.620Z,77.43
2018-04-30T06:47:35.347Z,76.93
2018-04-30T06:50:01.086Z,77.43
2018-04-30T06:52:26.808Z,78.41
2018-04-30T06:54:52.539Z,78.58
2018-04-30T06:57:18.269Z,79.11
2018-04-30T06:59:44.019Z,78.93
2018-04-30T07:02:09.749Z,78.86
2018-04-30T07:04:35.477Z,79.33
2018-04-30T07:07:01.195Z,78.95
2018-04-30T07:09:27.004Z,79.92
2018-04-30T07:11:52.661Z,83.46
2018-04-30T07:14:18.396Z,86.57
2018-04-30T07:16:44.124Z,87.81
2018-04-30T07:19:09.905Z,90.24
2018-04-30T07:21:35.628Z,92.29
2018-04-30T07:24:01.370Z,100.00
2018-04-30T07:26:27.084Z,100.00
2018-04-30T07:28:52.817Z,100.00
2018-04-30T07:31:18.549Z,100.00
2018-04-30T07:33:44.279Z,100.00
2018-04-30T07:36:10.000Z,100.00
2018-04-30T07:38:35.742Z,100.00
2018-04-30T07:41:01.477Z,100.00
2018-04-30T07:43:27.204Z,100.00
2018-04-30T07:45:52.937Z,100.00
2018-04-30T07:48:18.657Z,100.00
2018-04-30T07:50:44.403Z,100.00
2018-04-30T07:53:10.120Z,100.00
2018-04-30T07:55:35.855Z,100.00
2018-04-30T07:58:01.592Z,100.00
2018-04-30T08:00:27.315Z,100.00
2018-04-30T08:02:53.040Z,100.00
2018-04-30T08:05:18.780Z,100.00
2018-04-30T08:07:44.563Z,100.00
2018-04-30T08:10:10.304Z,100.00
2018-04-30T08:12:36.021Z,100.00
2018-04-30T08:15:01.759Z,100.00
2018-04-30T08:17:27.484Z,100.00
2018-04-30T08:19:53.216Z,100.00
2018-04-30T08:22:18.943Z,100.00
2018-04-30T08:24:44.695Z,100.00
2018-04-30T08:27:10.403Z,100.00
2018-04-30T08:29:36.159Z,100.00
2018-04-30T08:32:01.897Z,100.00
2018-04-30T08:34:27.632Z,100.00
2018-04-30T08:36:53.348Z,100.00
2018-04-30T08:39:19.080Z,100.00
2018-04-30T08:41:44.861Z,100.00
2018-04-30T08:44:10.614Z,100.00
2018-04-30T08:46:36.344Z,100.00
2018-04-30T08:49:02.073Z,100.00
2018-04-30T08:51:27.812Z,100.00
2018-04-30T08:53:53.528Z,100.00
2018-04-30T08:56:19.273Z,100.00
2018-04-30T08:58:45.000Z,100.00
2018-04-30T09:01:10.731Z,100.00
2018-04-30T09:03:36.444Z,100.00
2018-04-30T09:06:02.178Z,100.00
2018-04-30T09:08:27.897Z,100.00
2018-04-30T09:10:53.638Z,100.00
2018-04-30T09:13:19.355Z,100.00
2018-04-30T09:15:45.084Z,100.00
2018-04-30T09:18:10.792Z,100.00
2018-04-30T09:20:36.518Z,100.00
2018-04-30T09:23:02.241Z,100.00
2018-04-30T09:25:27.981Z,100.00
2018-04-30T09:27:53.705Z,100.00
2018-04-30T09:30:19.449Z,100.00
2018-04-30T09:32:45.163Z,100.00
2018-04-30T09:35:10.891Z,100.00
2018-04-30T09:37:36.603Z,100.00
2018-04-30T09:40:02.340Z,100.00
2018-04-30T09:42:28.065Z,100.00
2018-04-30T09:44:53.800Z,100.00
2018-04-30T09:47:19.520Z,100.00
2018-04-30T09:49:45.235Z,100.00
2018-04-30T09:52:10.960Z,100.00
2018-04-30T09:54:36.676Z,100.00
2018-04-30T09:57:02.427Z,100.00
2018-04-30T09:59:28.144Z,100.00
2018-04-30T10:01:53.920Z,100.00
2018-04-30T10:04:19.612Z,100.00
2018-04-30T10:06:45.348Z,100.00
2018-04-30T10:09:11.068Z,100.00
2018-04-30T10:11:36.797Z,100.00
2018-04-30T10:14:02.525Z,100.00
2018-04-30T10:16:28.256Z,100.00
2018-04-30T10:18:53.988Z,100.00
2018-04-30T10:21:19.729Z,100.00
2018-04-30T10:23:45.526Z,100.00
2018-04-30T10:26:11.208Z,100.00
2018-04-30T10:28:36.988Z,100.00
2018-04-30T10:31:02.681Z,100.00
2018-04-30T10:33:28.403Z,100.00
2018-04-30T10:35:54.132Z,100.00
2018-04-30T10:38:19.868Z,100.00
2018-04-30T10:40:45.608Z,100.00
2018-04-30T10:43:11.327Z,100.00
2018-04-30T10:45:37.058Z,100.00
2018-04-30T10:48:02.799Z,100.00
2018-04-30T10:50:28.532Z,100.00
2018-04-30T10:52:54.263Z,100.00
2018-04-30T10:55:19.988Z,100.00
2018-04-30T10:57:45.741Z,100.00
2018-04-30T11:00:11.462Z,100.00
2018-04-30T11:02:37.199Z,100.00
2018-04-30T11:05:02.922Z,100.00
2018-04-30T11:07:28.651Z,100.00
2018-04-30T11:09:54.384Z,100.00
2018-04-30T11:12:20.186Z,100.00
2018-04-30T11:14:45.865Z,100.00
2018-04-30T11:17:11.609Z,100.00
2018-04-30T11:19:37.332Z,100.00
2018-04-30T11:22:03.077Z,100.00
2018-04-30T11:24:28.810Z,100.00
2018-04-30T11:26:54.557Z,100.00
2018-04-30T11:29:20.277Z,100.00
2018-04-30T11:31:46.008Z,100.00
2018-04-30T11:34:11.810Z,100.00
2018-04-30T11:36:37.469Z,100.00
2018-04-30T11:39:03.217Z,100.00
2018-04-30T11:41:28.945Z,100.00
2018-04-30T11:43:54.676Z,100.00
2018-04-30T11:46:20.419Z,100.00
2018-04-30T11:48:46.153Z,100.00
2018-04-30T11:51:11.888Z,100.00
2018-04-30T11:53:37.636Z,100.00
2018-04-30T11:56:03.403Z,100.00
2018-04-30T11:58:29.141Z,100.00
2018-04-30T12:00:54.878Z,100.00
2018-04-30T12:03:20.611Z,100.00
2018-04-30T12:05:46.352Z,100.00
2018-04-30T12:08:12.088Z,100.00
2018-04-30T12:10:37.813Z,100.00
2018-04-30T12:13:03.552Z,100.00
2018-04-30T12:15:29.285Z,100.00
2018-04-30T12:17:55.031Z,100.00
2018-04-30T12:20:20.760Z,100.00
2018-04-30T12:22:46.500Z,100.00
2018-04-30T12:25:12.220Z,100.00
2018-04-30T12:27:37.968Z,100.00
2018-04-30T12:30:03.708Z,100.00
2018-04-30T12:32:29.443Z,100.00
2018-04-30T12:34:55.182Z,100.00
2018-04-30T12:37:20.928Z,100.00
2018-04-30T12:39:46.655Z,100.00
2018-04-30T12:42:12.399Z,100.00
2018-04-30T12:44:38.142Z,100.00
2018-04-30T12:47:03.872Z,100.00
2018-04-30T12:49:29.705Z,100.00
2018-04-30T12:51:55.360Z,100.00
2018-04-30T12:54:21.089Z,100.00
2018-04-30T12:56:46.840Z,100.00
2018-04-30T12:59:12.557Z,100.00
2018-04-30T13:01:38.280Z,100.00
2018-04-30T13:05:54.937Z,83.82
2018-04-30T13:08:20.671Z,83.77
2018-04-30T13:10:46.389Z,84.38
2018-04-30T13:13:12.117Z,85.19
2018-04-30T13:15:37.840Z,85.36
2018-04-30T13:18:03.580Z,86.20
2018-04-30T13:20:29.292Z,86.98
2018-04-30T13:22:55.032Z,87.29
2018-04-30T13:25:20.753Z,87.78
2018-04-30T13:27:46.509Z,88.60
2018-04-30T13:30:12.229Z,89.51
2018-04-30T13:32:37.964Z,90.13
2018-04-30T13:35:03.672Z,90.70
2018-04-30T13:37:29.387Z,91.30
2018-04-30T13:39:55.160Z,92.34
2018-04-30T13:42:20.876Z,92.35
2018-04-30T13:44:46.599Z,92.55
2018-04-30T13:47:12.334Z,93.36
2018-04-30T13:49:38.062Z,93.43
2018-04-30T13:52:03.808Z,93.81
2018-04-30T13:54:29.531Z,93.14
2018-04-30T13:56:55.264Z,92.91
2018-04-30T13:59:20.991Z,92.74
2018-04-30T14:01:46.717Z,91.34
2018-04-30T14:04:12.447Z,91.20
2018-04-30T14:06:38.159Z,92.38
2018-04-30T14:09:04.801Z,91.84
2018-04-30T14:11:30.524Z,92.83
2018-04-30T14:13:56.242Z,92.14
2018-04-30T14:16:21.956Z,92.00
2018-04-30T14:18:47.689Z,91.56
2018-04-30T14:21:13.408Z,92.46
2018-04-30T14:23:39.133Z,92.43
2018-04-30T14:26:04.854Z,92.75
2018-04-30T14:28:30.590Z,93.90
2018-04-30T14:30:56.299Z,95.39
2018-04-30T14:33:22.036Z,95.25
2018-04-30T14:35:47.744Z,96.60
2018-04-30T14:38:13.468Z,96.53
2018-04-30T14:40:39.186Z,96.39
2018-04-30T14:43:04.935Z,96.56
2018-04-30T14:45:30.681Z,96.35
2018-04-30T14:47:56.406Z,95.51
2018-04-30T14:50:22.132Z,96.21
2018-04-30T14:52:47.852Z,96.49
2018-04-30T14:55:13.577Z,95.95
2018-04-30T14:57:39.304Z,95.53
2018-04-30T15:00:05.026Z,95.76
2018-04-30T15:02:30.836Z,95.38
2018-04-30T15:04:56.491Z,94.78
2018-04-30T15:07:22.220Z,94.92
2018-04-30T15:09:47.947Z,92.65
2018-04-30T15:12:13.661Z,91.92
2018-04-30T15:14:39.387Z,92.36
2018-04-30T15:17:05.123Z,91.65
2018-04-30T15:19:30.887Z,91.76
2018-04-30T15:21:56.568Z,92.38
2018-04-30T15:24:22.300Z,91.01
2018-04-30T15:26:48.026Z,90.61
2018-04-30T15:29:13.763Z,90.78
2018-04-30T15:31:39.483Z,91.21
2018-04-30T15:34:05.224Z,88.72
2018-04-30T15:36:30.935Z,88.75
2018-04-30T15:38:56.656Z,89.72
2018-04-30T15:41:22.376Z,88.04
2018-04-30T15:43:48.129Z,89.25
2018-04-30T15:46:13.861Z,88.74
2018-04-30T15:48:39.686Z,89.88
2018-04-30T15:51:05.343Z,89.58
2018-04-30T15:53:31.078Z,88.52
2018-04-30T15:55:56.813Z,89.42
2018-04-30T15:58:22.560Z,89.18
2018-04-30T16:00:48.280Z,88.30
2018-04-30T16:03:14.021Z,88.27
2018-04-30T16:05:39.747Z,88.35
2018-04-30T16:08:05.501Z,87.34
2018-04-30T16:10:31.227Z,88.28
2018-04-30T16:12:56.950Z,88.11
2018-04-30T16:15:22.677Z,85.61
2018-04-30T16:17:48.399Z,85.07
2018-04-30T16:20:14.182Z,85.31
2018-04-30T16:22:39.847Z,84.87
2018-04-30T16:25:05.580Z,85.84
2018-04-30T16:27:31.305Z,86.45
2018-04-30T16:29:57.044Z,85.50
2018-04-30T16:32:22.775Z,85.12
2018-04-30T16:34:48.504Z,83.71
2018-04-30T16:37:14.229Z,83.96
2018-04-30T16:39:39.962Z,84.66
2018-04-30T16:42:05.693Z,83.14
2018-04-30T16:44:31.424Z,83.57
2018-04-30T16:46:57.216Z,81.99
2018-04-30T16:49:22.868Z,81.58
2018-04-30T16:51:48.594Z,81.85
2018-04-30T16:54:14.324Z,81.39
2018-04-30T16:56:40.048Z,81.80
2018-04-30T16:59:05.780Z,81.35
2018-04-30T17:01:31.488Z,79.75
2018-04-30T17:03:57.219Z,79.49
2018-04-30T17:06:22.934Z,78.63
2018-04-30T17:08:48.680Z,78.26
2018-04-30T17:11:14.400Z,77.25
2018-04-30T17:13:40.157Z,78.80
2018-04-30T17:16:05.906Z,78.89
2018-04-30T17:18:31.650Z,79.78
2018-04-30T17:20:57.377Z,78.69
2018-04-30T17:23:23.114Z,78.37
2018-04-30T17:25:48.860Z,76.95
2018-04-30T17:28:14.590Z,77.79
2018-04-30T17:30:40.337Z,78.07
2018-04-30T17:33:06.065Z,77.74
2018-04-30T17:35:31.798Z,78.90
2018-04-30T17:37:57.530Z,76.36
2018-04-30T17:40:23.260Z,76.46
2018-04-30T17:42:48.977Z,77.08
2018-04-30T17:45:14.697Z,75.70
2018-04-30T17:47:40.407Z,74.27
2018-04-30T17:50:06.156Z,73.25
2018-04-30T17:52:31.897Z,74.35
2018-04-30T17:54:57.626Z,72.87
2018-04-30T17:57:25.084Z,73.06
2018-04-30T17:59:50.919Z,73.11
2018-04-30T18:02:16.648Z,72.73
2018-04-30T18:04:42.384Z,69.71
2018-04-30T18:07:08.395Z,70.67
2018-04-30T18:09:34.562Z,70.73
2018-04-30T18:12:00.324Z,69.82
2018-04-30T18:14:26.063Z,68.90
2018-04-30T18:16:51.793Z,68.69
2018-04-30T18:19:17.523Z,67.98
2018-04-30T18:21:43.255Z,68.22
2018-04-30T18:24:08.986Z,69.44
2018-04-30T18:26:34.806Z,70.46
2018-04-30T18:29:00.446Z,70.40
2018-04-30T18:31:26.176Z,70.16
2018-04-30T18:33:51.902Z,69.22
2018-04-30T18:36:17.653Z,68.69
2018-04-30T18:38:43.450Z,69.81
2018-04-30T18:41:09.132Z,70.45
2018-04-30T18:43:34.844Z,72.52
2018-04-30T18:46:00.589Z,71.33
2018-04-30T18:48:26.301Z,71.09
2018-04-30T18:50:52.031Z,70.55
2018-04-30T18:53:17.757Z,71.49
2018-04-30T18:55:43.492Z,71.08
2018-04-30T18:58:09.216Z,70.44
2018-04-30T19:00:34.945Z,69.15
2018-04-30T19:03:00.665Z,69.53
2018-04-30T19:05:26.391Z,69.89
2018-04-30T19:07:52.117Z,69.28
2018-04-30T19:10:17.852Z,71.83
2018-04-30T19:12:43.564Z,70.89
2018-04-30T19:15:09.289Z,69.88
2018-04-30T19:17:35.014Z,70.97
2018-04-30T19:20:00.745Z,70.28
2018-04-30T19:22:26.756Z,70.20
2018-04-30T19:24:52.479Z,71.68
2018-04-30T19:27:18.197Z,70.63
2018-04-30T19:29:43.929Z,70.84
2018-04-30T19:32:09.661Z,71.60
2018-04-30T19:34:35.375Z,70.00
2018-04-30T19:37:01.108Z,71.48
2018-04-30T19:39:26.825Z,70.61
2018-04-30T19:41:52.552Z,71.42
2018-04-30T19:44:18.279Z,72.21
2018-04-30T19:46:44.073Z,72.03
2018-04-30T19:49:09.736Z,72.64
2018-04-30T19:51:35.456Z,71.56
2018-04-30T19:54:01.167Z,70.99
2018-04-30T19:56:26.901Z,71.14
2018-04-30T19:58:52.620Z,69.47
2018-04-30T20:01:18.355Z,69.09
2018-04-30T20:03:44.069Z,68.82
2018-04-30T20:06:09.788Z,69.03
2018-04-30T20:08:35.512Z,69.07
2018-04-30T20:11:01.247Z,70.05
2018-04-30T20:13:26.986Z,70.49
2018-04-30T20:15:52.713Z,69.91
2018-04-30T20:18:18.413Z,71.26
2018-04-30T20:20:44.140Z,70.74
2018-04-30T20:23:09.863Z,71.88
2018-04-30T20:25:35.592Z,72.18
2018-04-30T20:28:01.309Z,71.52
2018-04-30T20:30:27.048Z,71.99
2018-04-30T20:32:52.768Z,72.28
2018-04-30T20:35:18.500Z,71.06
2018-04-30T20:37:44.233Z,70.75
2018-04-30T20:40:09.949Z,70.34
2018-04-30T20:42:35.676Z,71.67
2018-04-30T20:45:01.389Z,72.29
2018-04-30T20:47:27.113Z,72.99
2018-04-30T20:49:52.834Z,72.88
2018-04-30T20:52:18.560Z,73.77
2018-04-30T20:54:44.281Z,73.83
2018-04-30T20:57:10.004Z,73.40
2018-04-30T20:59:35.717Z,74.61
2018-04-30T21:02:01.444Z,74.96
2018-04-30T21:04:27.212Z,75.68
2018-04-30T21:06:52.936Z,76.15
2018-04-30T21:09:18.647Z,76.29
2018-04-30T21:11:44.380Z,75.28
2018-04-30T21:14:10.083Z,75.88
2018-04-30T21:16:35.823Z,76.18
2018-04-30T21:19:01.531Z,77.64
2018-04-30T21:21:27.261Z,76.90
2018-04-30T21:23:52.984Z,77.37
2018-04-30T21:26:18.715Z,77.18
2018-04-30T21:28:44.435Z,77.13
2018-04-30T21:31:10.154Z,77.76
2018-04-30T21:33:35.879Z,77.87
2018-04-30T21:36:01.600Z,77.62
2018-04-30T21:38:27.323Z,78.39
2018-04-30T21:40:53.044Z,78.42
2018-04-30T21:43:18.764Z,79.16
2018-04-30T21:45:44.480Z,79.64
2018-04-30T21:48:10.212Z,80.08
2018-04-30T21:50:35.921Z,81.09
2018-04-30T21:53:01.640Z,79.74
2018-04-30T21:55:27.360Z,81.26
2018-04-30T21:57:53.098Z,81.26
2018-04-30T22:00:18.855Z,81.52
2018-04-30T22:02:44.596Z,81.80
2018-04-30T22:05:10.316Z,82.62
2018-04-30T22:07:36.048Z,83.55
2018-04-30T22:10:01.774Z,83.19
2018-04-30T22:12:27.504Z,82.64
2018-04-30T22:14:53.228Z,82.58
2018-04-30T22:17:18.957Z,82.65
2018-04-30T22:19:44.673Z,82.57
2018-04-30T22:22:10.436Z,82.98
2018-04-30T22:24:36.139Z,83.20
2018-04-30T22:27:01.881Z,83.49
2018-04-30T22:29:27.603Z,83.39
2018-04-30T22:31:53.328Z,82.89
2018-04-30T22:34:19.053Z,83.01
2018-04-30T22:36:44.804Z,82.32
2018-04-30T22:39:10.519Z,82.10
2018-04-30T22:41:36.241Z,82.28
2018-04-30T22:44:02.000Z,81.82
2018-04-30T22:46:27.704Z,82.05
2018-04-30T22:48:53.444Z,82.36
2018-04-30T22:51:19.164Z,82.33
2018-04-30T22:53:44.908Z,81.72
2018-04-30T22:56:10.633Z,81.54
2018-04-30T22:58:36.375Z,81.24
2018-04-30T23:01:02.097Z,80.98
2018-04-30T23:03:27.832Z,80.96
2018-04-30T23:05:53.568Z,80.92
2018-04-30T23:08:19.291Z,80.28
2018-04-30T23:10:45.005Z,77.94
2018-04-30T23:13:10.736Z,76.87
2018-04-30T23:15:36.453Z,77.06
2018-04-30T23:18:02.175Z,76.79
2018-04-30T23:20:27.889Z,75.08
2018-04-30T23:22:53.657Z,74.10
2018-04-30T23:25:20.351Z,74.16
2018-04-30T23:27:46.084Z,73.17
2018-04-30T23:30:11.788Z,72.82
2018-04-30T23:32:37.508Z,72.69
2018-04-30T23:35:03.224Z,73.85
2018-04-30T23:37:28.949Z,73.98
2018-04-30T23:39:54.665Z,73.80
2018-04-30T23:42:20.708Z,73.98
2018-04-30T23:44:46.436Z,73.75
2018-04-30T23:47:12.163Z,74.40
2018-04-30T23:49:37.896Z,73.88
2018-04-30T23:52:03.619Z,74.84
2018-04-30T23:54:29.331Z,75.07
2018-04-30T23:56:55.069Z,75.92
2018-04-30T23:59:21.490Z,75.82
